Julian Carroll Airport
KJKL : rendu visible

Aérodrome :











RETROUVEZ-NOUS SUR...

 
LOGIN :

S'inscrire | Disclaimer

   EN    FR    IT 

 









Légende :    VFR   VFR Marginal   IFR   IFR Intensif   IFR Très Intensif
Visi : 
Plafond : 
>= 8 km
>= 3000ft
5 à 8 km
1000 à 3000 ft
1500m à 5 km
500 à 1000 ft
800 à 1500m
200 à 500 ft
< 800m
< 200 ft
Symboles :   Orages  Brouillard  Fortes neiges  Fortes précipitations  Vent > 20 kt






- Altitude de l'aérodrome : 1381 ft


KJKL - Julian Carroll

DERNIER METAR :
  • 251353Z AUTO VRB05KT 10SM CLR 12/02 A3008 RMK AO2 SLP183 T01170017

METARs EXPIRÉS :
  • 251253Z AUTO VRB04KT 10SM CLR 11/01 A3009 RMK AO2 SLP186 T01060011
  • 251153Z AUTO VRB05KT 10SM FEW050 11/01 A3009 RMK AO2 SLP188 T01060006 10111 20089 50003

TAF KJKL
Valide du 25 à 12h jusqu'au 26 à 12h UTC


251144Z 2512/2612 VRB05KT P6SM BKN050 BKN120 WS020/20040KT
FM251330 19011G26KT P6SM VCSH OVC050 WS020/20035KT
FM251800 20011G27KT P6SM -SHRA OVC050
FM252000 20009KT P6SM -SHRA OVC035 WS020/20035KT
FM260600 23009KT P6SM BKN030
FIR KZID / Amérique du Nord



MET'MAP, la Météo Aéronautique d'un coup d'oeil ! - Copyright ORBIFLY Décembre 2007 - Disclaimer

ORBIFLY MET'MAP TEAM :

Programmation & Développement : Alexandra Zaïnal
Sur une idée originale de : Baudouin d'Aumeries
Assistance à la programmation : Marc-Olivier Méhu
Soutien technique & logistique : Manuel Goepfert

Contact : metmap@orbifly.com




SOURCES & CREDITS :

   NOAA       Earth
Advisory